sensor_id;sensor_type;location;lat;lon;timestamp;P1;durP1;ratioP1;P2;durP2;ratioP2
72895;SDS011;61036;53.224;6.554;2022-11-27T00:00:57;21.97;;;7.30;;
72895;SDS011;61036;53.224;6.554;2022-11-27T00:03:23;19.30;;;6.80;;
72895;SDS011;61036;53.224;6.554;2022-11-27T00:05:55;26.93;;;8.20;;
72895;SDS011;61036;53.224;6.554;2022-11-27T00:08:23;21.80;;;7.33;;
72895;SDS011;61036;53.224;6.554;2022-11-27T00:10:50;21.53;;;7.03;;
72895;SDS011;61036;53.224;6.554;2022-11-27T00:13:16;18.23;;;6.90;;
72895;SDS011;61036;53.224;6.554;2022-11-27T00:15:43;21.40;;;7.63;;
72895;SDS011;61036;53.224;6.554;2022-11-27T00:18:11;20.23;;;6.97;;
72895;SDS011;61036;53.224;6.554;2022-11-27T00:20:40;14.63;;;6.83;;
72895;SDS011;61036;53.224;6.554;2022-11-27T00:23:07;16.90;;;6.80;;
72895;SDS011;61036;53.224;6.554;2022-11-27T00:25:33;19.13;;;7.57;;
72895;SDS011;61036;53.224;6.554;2022-11-27T00:27:59;16.63;;;7.13;;
72895;SDS011;61036;53.224;6.554;2022-11-27T00:30:25;16.53;;;6.47;;
72895;SDS011;61036;53.224;6.554;2022-11-27T00:32:53;16.07;;;6.60;;
72895;SDS011;61036;53.224;6.554;2022-11-27T00:35:19;14.23;;;7.13;;
72895;SDS011;61036;53.224;6.554;2022-11-27T00:37:44;16.60;;;6.33;;
72895;SDS011;61036;53.224;6.554;2022-11-27T00:40:10;22.43;;;6.83;;
72895;SDS011;61036;53.224;6.554;2022-11-27T00:42:36;17.00;;;6.50;;
72895;SDS011;61036;53.224;6.554;2022-11-27T00:45:02;17.70;;;7.00;;
72895;SDS011;61036;53.224;6.554;2022-11-27T00:47:28;20.13;;;6.80;;
72895;SDS011;61036;53.224;6.554;2022-11-27T00:49:54;18.97;;;7.10;;
72895;SDS011;61036;53.224;6.554;2022-11-27T00:52:22;16.50;;;6.87;;
72895;SDS011;61036;53.224;6.554;2022-11-27T00:54:48;15.90;;;6.70;;
72895;SDS011;61036;53.224;6.554;2022-11-27T00:57:14;16.00;;;7.20;;
72895;SDS011;61036;53.224;6.554;2022-11-27T00:59:40;18.67;;;6.83;;
72895;SDS011;61036;53.224;6.554;2022-11-27T01:02:08;18.30;;;7.90;;
72895;SDS011;61036;53.224;6.554;2022-11-27T01:04:34;17.97;;;6.80;;
72895;SDS011;61036;53.224;6.554;2022-11-27T01:07:02;16.73;;;6.30;;
72895;SDS011;61036;53.224;6.554;2022-11-27T01:09:33;17.53;;;7.10;;
72895;SDS011;61036;53.224;6.554;2022-11-27T01:11:59;17.77;;;7.43;;
72895;SDS011;61036;53.224;6.554;2022-11-27T01:14:24;15.33;;;6.60;;
72895;SDS011;61036;53.224;6.554;2022-11-27T01:16:50;15.67;;;6.73;;
72895;SDS011;61036;53.224;6.554;2022-11-27T01:19:16;14.97;;;6.43;;
72895;SDS011;61036;53.224;6.554;2022-11-27T01:21:43;18.33;;;6.67;;
72895;SDS011;61036;53.224;6.554;2022-11-27T01:24:12;18.70;;;7.87;;
72895;SDS011;61036;53.224;6.554;2022-11-27T01:26:42;14.27;;;7.53;;
72895;SDS011;61036;53.224;6.554;2022-11-27T01:29:08;20.47;;;6.67;;
72895;SDS011;61036;53.224;6.554;2022-11-27T01:31:34;18.37;;;7.33;;
72895;SDS011;61036;53.224;6.554;2022-11-27T01:34:01;21.10;;;7.13;;
72895;SDS011;61036;53.224;6.554;2022-11-27T01:36:31;15.13;;;6.27;;
72895;SDS011;61036;53.224;6.554;2022-11-27T01:39:00;13.50;;;6.53;;
72895;SDS011;61036;53.224;6.554;2022-11-27T01:41:27;16.50;;;6.93;;
72895;SDS011;61036;53.224;6.554;2022-11-27T01:43:56;15.97;;;7.93;;
72895;SDS011;61036;53.224;6.554;2022-11-27T01:46:41;33.73;;;17.50;;
72895;SDS011;61036;53.224;6.554;2022-11-27T01:49:15;16.90;;;6.50;;
72895;SDS011;61036;53.224;6.554;2022-11-27T01:54:28;14.73;;;7.00;;
72895;SDS011;61036;53.224;6.554;2022-11-27T01:57:10;22.40;;;7.77;;
72895;SDS011;61036;53.224;6.554;2022-11-27T01:59:39;16.27;;;6.67;;
72895;SDS011;61036;53.224;6.554;2022-11-27T02:02:05;17.43;;;7.60;;
72895;SDS011;61036;53.224;6.554;2022-11-27T02:04:35;19.47;;;6.90;;
72895;SDS011;61036;53.224;6.554;2022-11-27T02:07:03;14.27;;;6.70;;
72895;SDS011;61036;53.224;6.554;2022-11-27T02:09:32;14.73;;;5.90;;
72895;SDS011;61036;53.224;6.554;2022-11-27T02:12:15;14.53;;;7.10;;
72895;SDS011;61036;53.224;6.554;2022-11-27T02:23:21;13.27;;;6.47;;
72895;SDS011;61036;53.224;6.554;2022-11-27T02:28:50;19.97;;;7.20;;
72895;SDS011;61036;53.224;6.554;2022-11-27T02:34:15;16.20;;;6.70;;
72895;SDS011;61036;53.224;6.554;2022-11-27T02:36:53;15.97;;;7.20;;
72895;SDS011;61036;53.224;6.554;2022-11-27T02:39:27;14.67;;;6.77;;
72895;SDS011;61036;53.224;6.554;2022-11-27T02:42:08;16.67;;;7.50;;
72895;SDS011;61036;53.224;6.554;2022-11-27T02:44:40;17.27;;;6.77;;
72895;SDS011;61036;53.224;6.554;2022-11-27T02:47:10;13.40;;;6.43;;
72895;SDS011;61036;53.224;6.554;2022-11-27T02:49:38;17.90;;;6.57;;
72895;SDS011;61036;53.224;6.554;2022-11-27T02:52:05;18.43;;;7.13;;
72895;SDS011;61036;53.224;6.554;2022-11-27T02:54:35;15.53;;;6.10;;
72895;SDS011;61036;53.224;6.554;2022-11-27T02:57:05;16.87;;;6.07;;
72895;SDS011;61036;53.224;6.554;2022-11-27T02:59:34;18.17;;;6.77;;
72895;SDS011;61036;53.224;6.554;2022-11-27T03:02:04;14.30;;;6.23;;
72895;SDS011;61036;53.224;6.554;2022-11-27T03:04:38;16.13;;;6.43;;
72895;SDS011;61036;53.224;6.554;2022-11-27T03:07:11;14.87;;;6.00;;
72895;SDS011;61036;53.224;6.554;2022-11-27T03:09:43;13.80;;;6.37;;
72895;SDS011;61036;53.224;6.554;2022-11-27T03:12:12;15.20;;;5.93;;
72895;SDS011;61036;53.224;6.554;2022-11-27T03:14:40;15.53;;;6.43;;
72895;SDS011;61036;53.224;6.554;2022-11-27T03:19:58;13.67;;;6.13;;
72895;SDS011;61036;53.224;6.554;2022-11-27T03:22:41;11.90;;;5.80;;
72895;SDS011;61036;53.224;6.554;2022-11-27T03:25:10;21.67;;;6.97;;
72895;SDS011;61036;53.224;6.554;2022-11-27T03:27:39;18.40;;;6.37;;
72895;SDS011;61036;53.224;6.554;2022-11-27T03:30:11;14.30;;;6.37;;
72895;SDS011;61036;53.224;6.554;2022-11-27T03:32:38;11.67;;;6.67;;
72895;SDS011;61036;53.224;6.554;2022-11-27T03:35:07;13.60;;;6.50;;
72895;SDS011;61036;53.224;6.554;2022-11-27T03:37:35;11.77;;;6.50;;
72895;SDS011;61036;53.224;6.554;2022-11-27T03:40:02;12.33;;;6.07;;
72895;SDS011;61036;53.224;6.554;2022-11-27T03:51:15;15.67;;;5.97;;
72895;SDS011;61036;53.224;6.554;2022-11-27T03:54:26;13.53;;;5.53;;
72895;SDS011;61036;53.224;6.554;2022-11-27T03:57:06;13.87;;;6.07;;
72895;SDS011;61036;53.224;6.554;2022-11-27T03:59:43;12.97;;;5.93;;
72895;SDS011;61036;53.224;6.554;2022-11-27T04:02:12;12.20;;;5.60;;
72895;SDS011;61036;53.224;6.554;2022-11-27T04:04:38;12.40;;;5.53;;
72895;SDS011;61036;53.224;6.554;2022-11-27T04:07:04;16.23;;;6.00;;
72895;SDS011;61036;53.224;6.554;2022-11-27T04:09:33;15.17;;;5.77;;
72895;SDS011;61036;53.224;6.554;2022-11-27T04:12:00;11.93;;;5.63;;
72895;SDS011;61036;53.224;6.554;2022-11-27T04:14:26;12.80;;;5.67;;
72895;SDS011;61036;53.224;6.554;2022-11-27T04:16:52;12.33;;;6.00;;
72895;SDS011;61036;53.224;6.554;2022-11-27T04:19:18;14.20;;;5.60;;
72895;SDS011;61036;53.224;6.554;2022-11-27T04:21:46;13.23;;;5.10;;
72895;SDS011;61036;53.224;6.554;2022-11-27T04:24:12;14.73;;;6.30;;
72895;SDS011;61036;53.224;6.554;2022-11-27T04:26:38;11.63;;;5.60;;
72895;SDS011;61036;53.224;6.554;2022-11-27T04:29:04;13.73;;;5.47;;
72895;SDS011;61036;53.224;6.554;2022-11-27T04:31:32;11.23;;;5.07;;
72895;SDS011;61036;53.224;6.554;2022-11-27T04:33:59;10.27;;;5.00;;
72895;SDS011;61036;53.224;6.554;2022-11-27T04:36:27;9.33;;;5.17;;
72895;SDS011;61036;53.224;6.554;2022-11-27T04:38:53;11.83;;;5.17;;
72895;SDS011;61036;53.224;6.554;2022-11-27T04:41:21;12.60;;;5.43;;
72895;SDS011;61036;53.224;6.554;2022-11-27T04:43:49;11.87;;;5.10;;
72895;SDS011;61036;53.224;6.554;2022-11-27T04:46:15;15.03;;;5.60;;
72895;SDS011;61036;53.224;6.554;2022-11-27T04:48:41;12.53;;;5.10;;
72895;SDS011;61036;53.224;6.554;2022-11-27T04:51:07;13.23;;;5.20;;
72895;SDS011;61036;53.224;6.554;2022-11-27T04:53:33;12.57;;;5.73;;
72895;SDS011;61036;53.224;6.554;2022-11-27T04:55:58;12.03;;;5.00;;
72895;SDS011;61036;53.224;6.554;2022-11-27T04:58:27;14.57;;;5.43;;
72895;SDS011;61036;53.224;6.554;2022-11-27T05:00:52;13.07;;;5.53;;
72895;SDS011;61036;53.224;6.554;2022-11-27T05:03:18;9.97;;;4.33;;
72895;SDS011;61036;53.224;6.554;2022-11-27T05:05:52;11.03;;;5.00;;
72895;SDS011;61036;53.224;6.554;2022-11-27T05:08:23;15.30;;;5.17;;
72895;SDS011;61036;53.224;6.554;2022-11-27T05:11:02;10.50;;;5.13;;
72895;SDS011;61036;53.224;6.554;2022-11-27T05:13:33;13.53;;;5.30;;
72895;SDS011;61036;53.224;6.554;2022-11-27T05:15:59;10.87;;;4.97;;
72895;SDS011;61036;53.224;6.554;2022-11-27T05:18:25;11.30;;;5.13;;
72895;SDS011;61036;53.224;6.554;2022-11-27T05:20:58;10.07;;;4.70;;
72895;SDS011;61036;53.224;6.554;2022-11-27T05:23:25;13.43;;;4.77;;
72895;SDS011;61036;53.224;6.554;2022-11-27T05:25:51;12.93;;;5.13;;
72895;SDS011;61036;53.224;6.554;2022-11-27T05:28:17;12.97;;;4.67;;
72895;SDS011;61036;53.224;6.554;2022-11-27T05:30:43;11.10;;;5.10;;
72895;SDS011;61036;53.224;6.554;2022-11-27T05:33:12;11.27;;;5.00;;
72895;SDS011;61036;53.224;6.554;2022-11-27T05:35:40;9.90;;;4.67;;
72895;SDS011;61036;53.224;6.554;2022-11-27T05:38:09;13.67;;;5.00;;
72895;SDS011;61036;53.224;6.554;2022-11-27T05:40:35;11.67;;;5.17;;
72895;SDS011;61036;53.224;6.554;2022-11-27T05:43:04;12.87;;;4.60;;
72895;SDS011;61036;53.224;6.554;2022-11-27T05:45:30;9.13;;;4.47;;
72895;SDS011;61036;53.224;6.554;2022-11-27T05:47:55;12.13;;;4.97;;
72895;SDS011;61036;53.224;6.554;2022-11-27T05:50:22;11.57;;;4.73;;
72895;SDS011;61036;53.224;6.554;2022-11-27T05:52:50;8.50;;;4.70;;
72895;SDS011;61036;53.224;6.554;2022-11-27T05:55:16;10.30;;;4.60;;
72895;SDS011;61036;53.224;6.554;2022-11-27T05:57:46;9.40;;;4.27;;
72895;SDS011;61036;53.224;6.554;2022-11-27T06:00:13;9.73;;;4.03;;
72895;SDS011;61036;53.224;6.554;2022-11-27T06:02:39;15.67;;;4.67;;
72895;SDS011;61036;53.224;6.554;2022-11-27T06:05:08;13.67;;;4.60;;
72895;SDS011;61036;53.224;6.554;2022-11-27T06:07:37;12.23;;;4.43;;
72895;SDS011;61036;53.224;6.554;2022-11-27T06:10:10;10.50;;;4.63;;
72895;SDS011;61036;53.224;6.554;2022-11-27T06:12:36;10.87;;;4.43;;
72895;SDS011;61036;53.224;6.554;2022-11-27T06:15:01;11.13;;;4.40;;
72895;SDS011;61036;53.224;6.554;2022-11-27T06:17:30;10.20;;;4.03;;
72895;SDS011;61036;53.224;6.554;2022-11-27T06:19:57;11.40;;;4.10;;
72895;SDS011;61036;53.224;6.554;2022-11-27T06:22:23;9.07;;;3.90;;
72895;SDS011;61036;53.224;6.554;2022-11-27T06:24:49;11.70;;;5.00;;
72895;SDS011;61036;53.224;6.554;2022-11-27T06:27:14;10.33;;;4.10;;
72895;SDS011;61036;53.224;6.554;2022-11-27T06:29:43;12.30;;;4.40;;
72895;SDS011;61036;53.224;6.554;2022-11-27T06:32:10;10.43;;;4.83;;
72895;SDS011;61036;53.224;6.554;2022-11-27T06:34:39;9.73;;;3.37;;
72895;SDS011;61036;53.224;6.554;2022-11-27T06:37:07;13.33;;;4.10;;
72895;SDS011;61036;53.224;6.554;2022-11-27T06:39:35;13.43;;;4.03;;
72895;SDS011;61036;53.224;6.554;2022-11-27T06:42:01;12.83;;;4.40;;
72895;SDS011;61036;53.224;6.554;2022-11-27T06:44:27;10.67;;;3.90;;
72895;SDS011;61036;53.224;6.554;2022-11-27T06:46:55;9.50;;;4.17;;
72895;SDS011;61036;53.224;6.554;2022-11-27T06:49:21;10.87;;;4.23;;
72895;SDS011;61036;53.224;6.554;2022-11-27T06:51:52;8.90;;;3.80;;
72895;SDS011;61036;53.224;6.554;2022-11-27T06:54:18;11.17;;;3.90;;
72895;SDS011;61036;53.224;6.554;2022-11-27T06:56:44;12.97;;;4.30;;
72895;SDS011;61036;53.224;6.554;2022-11-27T06:59:10;9.77;;;4.27;;
72895;SDS011;61036;53.224;6.554;2022-11-27T07:01:41;11.37;;;3.87;;
72895;SDS011;61036;53.224;6.554;2022-11-27T07:04:10;9.90;;;3.77;;
72895;SDS011;61036;53.224;6.554;2022-11-27T07:06:39;11.07;;;4.10;;
72895;SDS011;61036;53.224;6.554;2022-11-27T07:09:05;8.13;;;3.80;;
72895;SDS011;61036;53.224;6.554;2022-11-27T07:11:32;11.80;;;4.43;;
72895;SDS011;61036;53.224;6.554;2022-11-27T07:14:02;9.77;;;4.33;;
72895;SDS011;61036;53.224;6.554;2022-11-27T07:16:32;10.03;;;4.00;;
72895;SDS011;61036;53.224;6.554;2022-11-27T07:19:04;10.97;;;4.33;;
72895;SDS011;61036;53.224;6.554;2022-11-27T07:21:32;10.43;;;4.13;;
72895;SDS011;61036;53.224;6.554;2022-11-27T07:23:59;8.57;;;3.70;;
72895;SDS011;61036;53.224;6.554;2022-11-27T07:26:30;9.47;;;4.30;;
72895;SDS011;61036;53.224;6.554;2022-11-27T07:28:55;11.13;;;4.27;;
72895;SDS011;61036;53.224;6.554;2022-11-27T07:31:22;11.37;;;4.27;;
72895;SDS011;61036;53.224;6.554;2022-11-27T07:33:54;9.33;;;4.20;;
72895;SDS011;61036;53.224;6.554;2022-11-27T07:36:24;12.43;;;3.90;;
72895;SDS011;61036;53.224;6.554;2022-11-27T07:38:52;12.00;;;4.23;;
72895;SDS011;61036;53.224;6.554;2022-11-27T07:41:18;10.00;;;4.23;;
72895;SDS011;61036;53.224;6.554;2022-11-27T07:43:44;12.23;;;4.23;;
72895;SDS011;61036;53.224;6.554;2022-11-27T07:46:14;11.77;;;4.67;;
72895;SDS011;61036;53.224;6.554;2022-11-27T07:48:46;8.97;;;4.23;;
72895;SDS011;61036;53.224;6.554;2022-11-27T07:51:16;10.27;;;4.30;;
72895;SDS011;61036;53.224;6.554;2022-11-27T07:53:43;10.17;;;4.07;;
72895;SDS011;61036;53.224;6.554;2022-11-27T07:56:12;9.90;;;4.50;;
72895;SDS011;61036;53.224;6.554;2022-11-27T07:58:39;14.27;;;5.07;;
72895;SDS011;61036;53.224;6.554;2022-11-27T08:01:08;9.57;;;4.83;;
72895;SDS011;61036;53.224;6.554;2022-11-27T08:03:35;8.87;;;4.10;;
72895;SDS011;61036;53.224;6.554;2022-11-27T08:06:02;13.60;;;4.90;;
72895;SDS011;61036;53.224;6.554;2022-11-27T08:08:28;12.50;;;4.57;;
72895;SDS011;61036;53.224;6.554;2022-11-27T08:10:54;13.87;;;5.07;;
72895;SDS011;61036;53.224;6.554;2022-11-27T08:13:19;13.10;;;4.37;;
72895;SDS011;61036;53.224;6.554;2022-11-27T08:15:45;11.53;;;4.90;;
72895;SDS011;61036;53.224;6.554;2022-11-27T08:18:12;9.67;;;4.80;;
72895;SDS011;61036;53.224;6.554;2022-11-27T08:20:38;11.43;;;4.80;;
72895;SDS011;61036;53.224;6.554;2022-11-27T08:23:03;11.10;;;4.63;;
72895;SDS011;61036;53.224;6.554;2022-11-27T08:25:30;10.63;;;4.87;;
72895;SDS011;61036;53.224;6.554;2022-11-27T08:27:59;10.30;;;5.20;;
72895;SDS011;61036;53.224;6.554;2022-11-27T08:30:24;11.97;;;4.97;;
72895;SDS011;61036;53.224;6.554;2022-11-27T08:32:54;10.30;;;4.80;;
72895;SDS011;61036;53.224;6.554;2022-11-27T08:35:24;11.73;;;5.67;;
72895;SDS011;61036;53.224;6.554;2022-11-27T08:37:50;12.63;;;5.13;;
72895;SDS011;61036;53.224;6.554;2022-11-27T08:40:18;10.43;;;4.83;;
72895;SDS011;61036;53.224;6.554;2022-11-27T08:42:44;10.60;;;5.37;;
72895;SDS011;61036;53.224;6.554;2022-11-27T08:45:10;12.23;;;5.50;;
72895;SDS011;61036;53.224;6.554;2022-11-27T08:47:35;12.43;;;5.50;;
72895;SDS011;61036;53.224;6.554;2022-11-27T08:50:04;11.10;;;5.07;;
72895;SDS011;61036;53.224;6.554;2022-11-27T08:52:30;8.30;;;4.73;;
72895;SDS011;61036;53.224;6.554;2022-11-27T08:54:56;11.10;;;5.47;;
72895;SDS011;61036;53.224;6.554;2022-11-27T08:57:22;12.37;;;5.37;;
72895;SDS011;61036;53.224;6.554;2022-11-27T08:59:47;14.10;;;4.90;;
72895;SDS011;61036;53.224;6.554;2022-11-27T09:02:16;11.80;;;4.93;;
72895;SDS011;61036;53.224;6.554;2022-11-27T09:04:42;12.27;;;5.20;;
72895;SDS011;61036;53.224;6.554;2022-11-27T09:07:13;12.33;;;5.63;;
72895;SDS011;61036;53.224;6.554;2022-11-27T09:09:39;10.97;;;5.43;;
72895;SDS011;61036;53.224;6.554;2022-11-27T09:12:09;16.23;;;5.90;;
72895;SDS011;61036;53.224;6.554;2022-11-27T09:14:35;11.33;;;5.37;;
72895;SDS011;61036;53.224;6.554;2022-11-27T09:17:00;13.80;;;5.83;;
72895;SDS011;61036;53.224;6.554;2022-11-27T09:19:28;10.73;;;5.80;;
72895;SDS011;61036;53.224;6.554;2022-11-27T09:21:56;11.87;;;6.23;;
72895;SDS011;61036;53.224;6.554;2022-11-27T09:24:24;11.37;;;5.57;;
72895;SDS011;61036;53.224;6.554;2022-11-27T09:26:52;10.80;;;5.90;;
72895;SDS011;61036;53.224;6.554;2022-11-27T09:29:18;13.47;;;5.83;;
72895;SDS011;61036;53.224;6.554;2022-11-27T09:31:47;11.90;;;6.07;;
72895;SDS011;61036;53.224;6.554;2022-11-27T09:34:15;12.70;;;5.70;;
72895;SDS011;61036;53.224;6.554;2022-11-27T09:36:42;12.17;;;5.80;;
72895;SDS011;61036;53.224;6.554;2022-11-27T09:39:07;11.20;;;6.00;;
72895;SDS011;61036;53.224;6.554;2022-11-27T09:41:37;12.77;;;5.93;;
72895;SDS011;61036;53.224;6.554;2022-11-27T09:47:26;11.70;;;5.53;;
72895;SDS011;61036;53.224;6.554;2022-11-27T09:50:02;13.17;;;6.33;;
72895;SDS011;61036;53.224;6.554;2022-11-27T09:52:38;13.90;;;5.60;;
72895;SDS011;61036;53.224;6.554;2022-11-27T09:57:54;11.77;;;6.00;;
72895;SDS011;61036;53.224;6.554;2022-11-27T10:00:28;11.80;;;6.30;;
72895;SDS011;61036;53.224;6.554;2022-11-27T10:02:54;16.20;;;6.90;;
72895;SDS011;61036;53.224;6.554;2022-11-27T10:05:24;10.23;;;6.33;;
72895;SDS011;61036;53.224;6.554;2022-11-27T10:08:02;17.03;;;7.40;;
72895;SDS011;61036;53.224;6.554;2022-11-27T10:18:56;10.77;;;6.30;;
72895;SDS011;61036;53.224;6.554;2022-11-27T10:26:42;10.43;;;6.80;;
72895;SDS011;61036;53.224;6.554;2022-11-27T10:32:04;14.70;;;7.47;;
72895;SDS011;61036;53.224;6.554;2022-11-27T10:34:41;15.87;;;7.37;;
72895;SDS011;61036;53.224;6.554;2022-11-27T10:42:39;14.23;;;7.07;;
72895;SDS011;61036;53.224;6.554;2022-11-27T10:45:24;18.40;;;7.33;;
72895;SDS011;61036;53.224;6.554;2022-11-27T10:48:01;19.17;;;7.40;;
72895;SDS011;61036;53.224;6.554;2022-11-27T10:50:27;13.97;;;7.40;;
72895;SDS011;61036;53.224;6.554;2022-11-27T10:52:56;13.73;;;7.13;;
72895;SDS011;61036;53.224;6.554;2022-11-27T10:55:27;13.97;;;7.50;;
72895;SDS011;61036;53.224;6.554;2022-11-27T10:58:04;12.37;;;6.07;;
72895;SDS011;61036;53.224;6.554;2022-11-27T11:00:37;13.37;;;6.93;;
72895;SDS011;61036;53.224;6.554;2022-11-27T11:03:04;13.47;;;7.17;;
72895;SDS011;61036;53.224;6.554;2022-11-27T11:05:40;13.70;;;7.23;;
72895;SDS011;61036;53.224;6.554;2022-11-27T11:08:15;14.93;;;7.67;;
72895;SDS011;61036;53.224;6.554;2022-11-27T11:10:44;15.40;;;7.63;;
72895;SDS011;61036;53.224;6.554;2022-11-27T11:13:26;14.97;;;7.13;;
72895;SDS011;61036;53.224;6.554;2022-11-27T11:18:30;18.00;;;7.87;;
72895;SDS011;61036;53.224;6.554;2022-11-27T11:21:14;12.93;;;7.27;;
72895;SDS011;61036;53.224;6.554;2022-11-27T11:23:56;13.60;;;7.23;;
72895;SDS011;61036;53.224;6.554;2022-11-27T11:26:27;13.57;;;6.93;;
72895;SDS011;61036;53.224;6.554;2022-11-27T11:28:57;12.20;;;6.63;;
72895;SDS011;61036;53.224;6.554;2022-11-27T11:31:28;13.37;;;6.80;;
72895;SDS011;61036;53.224;6.554;2022-11-27T11:34:03;15.30;;;6.90;;
72895;SDS011;61036;53.224;6.554;2022-11-27T11:36:38;16.33;;;7.07;;
72895;SDS011;61036;53.224;6.554;2022-11-27T11:39:05;12.73;;;6.50;;
72895;SDS011;61036;53.224;6.554;2022-11-27T11:44:04;14.23;;;6.97;;
72895;SDS011;61036;53.224;6.554;2022-11-27T11:46:32;14.53;;;7.43;;
72895;SDS011;61036;53.224;6.554;2022-11-27T11:49:17;13.00;;;6.63;;
72895;SDS011;61036;53.224;6.554;2022-11-27T11:54:49;17.73;;;6.87;;
72895;SDS011;61036;53.224;6.554;2022-11-27T12:06:19;13.80;;;7.30;;
72895;SDS011;61036;53.224;6.554;2022-11-27T12:11:39;15.97;;;7.43;;
72895;SDS011;61036;53.224;6.554;2022-11-27T12:20:17;14.23;;;7.57;;
72895;SDS011;61036;53.224;6.554;2022-11-27T12:28:20;12.13;;;6.60;;
72895;SDS011;61036;53.224;6.554;2022-11-27T12:33:59;17.37;;;7.67;;
72895;SDS011;61036;53.224;6.554;2022-11-27T12:42:05;13.57;;;7.03;;
72895;SDS011;61036;53.224;6.554;2022-11-27T12:47:09;14.37;;;6.80;;
72895;SDS011;61036;53.224;6.554;2022-11-27T12:49:53;12.23;;;7.50;;
72895;SDS011;61036;53.224;6.554;2022-11-27T12:52:36;12.93;;;6.50;;
72895;SDS011;61036;53.224;6.554;2022-11-27T12:55:16;12.70;;;7.43;;
72895;SDS011;61036;53.224;6.554;2022-11-27T12:58:08;15.57;;;7.43;;
72895;SDS011;61036;53.224;6.554;2022-11-27T13:00:39;11.13;;;6.40;;
72895;SDS011;61036;53.224;6.554;2022-11-27T13:03:10;12.13;;;7.60;;
72895;SDS011;61036;53.224;6.554;2022-11-27T13:05:52;13.30;;;6.97;;
72895;SDS011;61036;53.224;6.554;2022-11-27T13:11:07;12.87;;;7.60;;
72895;SDS011;61036;53.224;6.554;2022-11-27T13:13:46;13.73;;;7.37;;
72895;SDS011;61036;53.224;6.554;2022-11-27T13:16:25;12.57;;;6.37;;
72895;SDS011;61036;53.224;6.554;2022-11-27T13:19:08;12.13;;;7.00;;
72895;SDS011;61036;53.224;6.554;2022-11-27T13:21:55;13.90;;;6.83;;
72895;SDS011;61036;53.224;6.554;2022-11-27T13:24:22;12.27;;;8.10;;
72895;SDS011;61036;53.224;6.554;2022-11-27T13:29:56;13.90;;;7.67;;
72895;SDS011;61036;53.224;6.554;2022-11-27T13:32:28;12.30;;;7.23;;
72895;SDS011;61036;53.224;6.554;2022-11-27T13:35:02;15.17;;;7.23;;
72895;SDS011;61036;53.224;6.554;2022-11-27T13:37:33;12.17;;;7.10;;
72895;SDS011;61036;53.224;6.554;2022-11-27T13:42:41;11.93;;;6.87;;
72895;SDS011;61036;53.224;6.554;2022-11-27T13:45:17;12.67;;;7.27;;
72895;SDS011;61036;53.224;6.554;2022-11-27T13:47:49;15.17;;;7.70;;
72895;SDS011;61036;53.224;6.554;2022-11-27T13:50:19;13.97;;;8.17;;
72895;SDS011;61036;53.224;6.554;2022-11-27T13:52:56;14.70;;;7.20;;
72895;SDS011;61036;53.224;6.554;2022-11-27T13:55:27;12.93;;;6.60;;
72895;SDS011;61036;53.224;6.554;2022-11-27T13:57:57;11.73;;;6.90;;
72895;SDS011;61036;53.224;6.554;2022-11-27T14:00:31;12.60;;;6.90;;
72895;SDS011;61036;53.224;6.554;2022-11-27T14:03:01;11.80;;;6.67;;
72895;SDS011;61036;53.224;6.554;2022-11-27T14:05:38;13.43;;;7.60;;
72895;SDS011;61036;53.224;6.554;2022-11-27T14:10:59;14.83;;;7.97;;
72895;SDS011;61036;53.224;6.554;2022-11-27T14:13:36;12.10;;;7.13;;
72895;SDS011;61036;53.224;6.554;2022-11-27T14:16:27;13.47;;;7.60;;
72895;SDS011;61036;53.224;6.554;2022-11-27T14:19:21;11.90;;;7.30;;
72895;SDS011;61036;53.224;6.554;2022-11-27T14:21:51;15.23;;;7.67;;
72895;SDS011;61036;53.224;6.554;2022-11-27T14:26:47;19.40;;;8.27;;
72895;SDS011;61036;53.224;6.554;2022-11-27T14:29:13;11.07;;;6.77;;
72895;SDS011;61036;53.224;6.554;2022-11-27T14:31:40;12.63;;;6.97;;
72895;SDS011;61036;53.224;6.554;2022-11-27T14:37:19;11.97;;;7.37;;
72895;SDS011;61036;53.224;6.554;2022-11-27T14:39:51;13.57;;;7.33;;
72895;SDS011;61036;53.224;6.554;2022-11-27T14:42:22;12.53;;;6.90;;
72895;SDS011;61036;53.224;6.554;2022-11-27T14:45:06;12.67;;;7.40;;
72895;SDS011;61036;53.224;6.554;2022-11-27T14:47:39;10.73;;;6.77;;
72895;SDS011;61036;53.224;6.554;2022-11-27T14:50:10;12.47;;;6.90;;
72895;SDS011;61036;53.224;6.554;2022-11-27T14:52:38;11.53;;;7.07;;
72895;SDS011;61036;53.224;6.554;2022-11-27T14:55:07;12.70;;;7.30;;
72895;SDS011;61036;53.224;6.554;2022-11-27T14:57:39;15.17;;;7.77;;
72895;SDS011;61036;53.224;6.554;2022-11-27T15:02:43;11.33;;;6.60;;
72895;SDS011;61036;53.224;6.554;2022-11-27T15:05:16;13.53;;;7.40;;
72895;SDS011;61036;53.224;6.554;2022-11-27T15:07:50;12.30;;;6.83;;
72895;SDS011;61036;53.224;6.554;2022-11-27T15:13:06;13.90;;;8.43;;
72895;SDS011;61036;53.224;6.554;2022-11-27T15:15:43;12.80;;;7.17;;
72895;SDS011;61036;53.224;6.554;2022-11-27T15:18:17;12.00;;;7.60;;
72895;SDS011;61036;53.224;6.554;2022-11-27T15:20:48;13.60;;;7.80;;
72895;SDS011;61036;53.224;6.554;2022-11-27T15:23:18;12.57;;;9.00;;
72895;SDS011;61036;53.224;6.554;2022-11-27T15:25:48;13.17;;;8.63;;
72895;SDS011;61036;53.224;6.554;2022-11-27T15:30:51;13.13;;;7.43;;
72895;SDS011;61036;53.224;6.554;2022-11-27T15:33:26;17.40;;;7.77;;
72895;SDS011;61036;53.224;6.554;2022-11-27T15:36:17;14.27;;;7.47;;
72895;SDS011;61036;53.224;6.554;2022-11-27T15:38:44;11.83;;;7.33;;
72895;SDS011;61036;53.224;6.554;2022-11-27T15:41:23;12.87;;;7.83;;
72895;SDS011;61036;53.224;6.554;2022-11-27T15:43:54;11.67;;;7.53;;
72895;SDS011;61036;53.224;6.554;2022-11-27T15:46:24;14.80;;;9.50;;
72895;SDS011;61036;53.224;6.554;2022-11-27T15:48:54;13.13;;;7.47;;
72895;SDS011;61036;53.224;6.554;2022-11-27T15:51:20;13.03;;;8.03;;
72895;SDS011;61036;53.224;6.554;2022-11-27T15:53:51;14.47;;;8.27;;
72895;SDS011;61036;53.224;6.554;2022-11-27T15:56:20;17.03;;;8.17;;
72895;SDS011;61036;53.224;6.554;2022-11-27T15:58:45;13.63;;;8.53;;
72895;SDS011;61036;53.224;6.554;2022-11-27T16:01:13;14.03;;;8.03;;
72895;SDS011;61036;53.224;6.554;2022-11-27T16:03:38;12.80;;;8.50;;
72895;SDS011;61036;53.224;6.554;2022-11-27T16:06:07;15.97;;;8.73;;
72895;SDS011;61036;53.224;6.554;2022-11-27T16:08:33;15.43;;;7.83;;
72895;SDS011;61036;53.224;6.554;2022-11-27T16:11:01;14.20;;;8.27;;
72895;SDS011;61036;53.224;6.554;2022-11-27T16:13:30;18.93;;;9.47;;
72895;SDS011;61036;53.224;6.554;2022-11-27T16:16:00;15.03;;;8.53;;
72895;SDS011;61036;53.224;6.554;2022-11-27T16:18:29;11.87;;;8.53;;
72895;SDS011;61036;53.224;6.554;2022-11-27T16:21:00;13.87;;;8.40;;
72895;SDS011;61036;53.224;6.554;2022-11-27T16:23:33;15.37;;;8.90;;
72895;SDS011;61036;53.224;6.554;2022-11-27T16:26:00;16.60;;;8.93;;
72895;SDS011;61036;53.224;6.554;2022-11-27T16:28:28;18.13;;;8.90;;
72895;SDS011;61036;53.224;6.554;2022-11-27T16:30:57;16.40;;;9.70;;
72895;SDS011;61036;53.224;6.554;2022-11-27T16:33:29;14.27;;;9.50;;
72895;SDS011;61036;53.224;6.554;2022-11-27T16:38:32;16.73;;;9.40;;
72895;SDS011;61036;53.224;6.554;2022-11-27T16:41:00;24.83;;;12.60;;
72895;SDS011;61036;53.224;6.554;2022-11-27T16:43:27;15.10;;;9.40;;
72895;SDS011;61036;53.224;6.554;2022-11-27T16:46:02;16.03;;;8.87;;
72895;SDS011;61036;53.224;6.554;2022-11-27T16:48:37;15.67;;;9.00;;
72895;SDS011;61036;53.224;6.554;2022-11-27T16:51:05;14.40;;;8.63;;
72895;SDS011;61036;53.224;6.554;2022-11-27T16:53:40;13.47;;;9.23;;
72895;SDS011;61036;53.224;6.554;2022-11-27T16:56:14;13.40;;;9.03;;
72895;SDS011;61036;53.224;6.554;2022-11-27T16:58:42;15.70;;;9.93;;